KTTD/TTD METAR and TAF weather

Enter ICAO airport designator
Station Type Date Time Source
KTTD METAR 2019/10/15 06:53 UTC NOAA

KTTD 150653Z AUTO 00000KT 10SM CLR 08/06 A3002 RMK AO2 SLP164 T00830056


Station Type Date Time Source
KTTD Decoded METAR 2019/10/15 06:53 UTC NOAA

PORTLAND-TROUTDALE AIRPORT, OR, United States (KTTD) 45-33N 122-25W 14M
Oct 15, 2019 - 02:53 AM EDT / 2019.10.15 0653 UTC
Wind: Calm:0
Visibility: 10 mile(s):0
Sky conditions: clear
Temperature: 46.9 F (8.3 C)
Dew Point: 42.1 F (5.6 C)
Relative Humidity: 83%
Pressure (altimeter): 30.02 in. Hg (1016 hPa)
ob: KTTD 150653Z AUTO 00000KT 10SM CLR 08/06 A3002 RMK AO2 SLP164 T00830056
cycle: 7

Station Type Date Time Source
KTTD TAF 2019/10/15 06:22 UTC NOAA

TAF KTTD 150520Z 1506/1606 10007KT P6SM SCT150 BKN250
FM151200 10010KT P6SM BKN150 OVC250

Example: see airport list